This is the latest recevied weather packets stored in our database for station/object YG1CIC-13. If no packets are shown the sender has not sent any weather packets the latest 10 day(s).
| Time | Temp. | Humidity | Pressure | Rain* | Wind** | Luminosity | Snow |
|---|---|---|---|---|---|---|---|
| 1777609097 | 36.67° C | 58% | - | 0 mm | - | - | - |
| 1777608496 | 36.11° C | 57% | - | 0 mm | - | - | - |
| 1777607895 | 36.11° C | 59% | - | 0 mm | - | - | - |
| 1777607295 | 36.11° C | 57% | - | 0 mm | - | - | - |
| 1777606694 | 36.67° C | 59% | - | 0 mm | - | - | - |
| 1777606094 | 36.67° C | 59% | - | 0 mm | - | - | - |
| 1777605493 | 36.67° C | 59% | - | 0 mm | - | - | - |
| 1777604892 | 36.67° C | 60% | - | 0 mm | - | - | - |
| 1777604292 | 36.11° C | 61% | - | 0 mm | - | - | - |
| 1777603691 | 35.56° C | 62% | - | 0 mm | - | - | - |
| 1777603091 | 34.44° C | 66% | - | 0 mm | - | - | - |
| 1777602490 | 35° C | 66% | - | 0 mm | - | - | - |
| 1777601889 | 36.67° C | 63% | - | 0 mm | - | - | - |
| 1777601289 | 36.11° C | 64% | - | 0 mm | - | - | - |
| 1777600688 | 31.67° C | 73% | - | 0 mm | - | - | - |
| 1777600088 | 31.11° C | 74% | - | 0 mm | - | - | - |
| 1777599487 | 30.56° C | 77% | - | 0 mm | - | - | - |
| 1777598886 | 30° C | 77% | - | 0 mm | - | - | - |
| 1777598286 | 30° C | 77% | - | 0 mm | - | - | - |
| 1777597685 | 29.44° C | 81% | - | 0 mm | - | - | - |
| 1777597085 | 28.89° C | 83% | - | 0 mm | - | - | - |
| 1777596484 | 27.78° C | 85% | - | 0 mm | - | - | - |
| 1777595883 | 27.78° C | 88% | - | 0 mm | - | - | - |
| 1777595283 | 27.22° C | 90% | - | 0 mm | - | - | - |
| 1777594682 | 27.22° C | 91% | - | 0 mm | - | - | - |
* Rain latest hour (hover to see other rain measurements)
** Current wind speed in m/s (hover to see current wind gust speed)